Main page
METAR-TAF:

METAR-TAF

Airports :

Luang Prabang International Airport

Luang Prabang, Laos

latitude: 19-53N, longitude: 102-08E, elevation: 305 m

Current weather observation

The report was made 7 hours and 47 minutes ago, at 12:00 UTC
Wind 4 kt from the East/Southeast
Temperature 28°C
Humidity 70%
Pressure 1010 hPa
Visibility 10 km or more
Scattered clouds at a height of 1000 ft
Few clouds at a height of 6000 ft

METAR: VLLB 011200Z 12004KT 9999 SCT010 FEW060 28/22 Q1010 NOSIG

Time: 02:47 (19:47 UTC)

Forecast

The report was made 2 hours and 47 minutes ago, at 17:00 UTC
Forecast valid from 01 at 18 UTC to 02 at 18 UTC
Wind 4 kt from the North
Visibility: 3000 m
Broken clouds at a height of 1000 ft
Overcast at a height of 6000 ft
mist

TAF: VLLB 011700Z 0118/0218 36004KT 3000 BR BKN010 OVC060

Weather observations and forecasts of more than 4000 airports (METAR and TAF reports).

The available stations are represented by yellow and red dots on the map.

Hover mouse over dot to see the name of the station.

Then click to see weather observations and forecasts.

To change the map : click on the green buttons with a black cross to zoom in, on the green button with a dash to zoom out, or on the green arrows for adjacent maps.


METAR-TAF: